»·PEaware :: AAL175 KBOI-KJAC

AAL175 :: KBOI-KJAC

FLIGHT INFORMATION

Flight Status: Arrived
Operator:
American Airlines
More flights by this operator :: More flights under this callsign
Pilot: Brad B. (8715)
Aircraft: BOEING 737-800
(B738)
More flights by this aircraft type
Origin: KBOI Boise Air Terminal/Gowen
United States
Destination: KJAC Jackson Hole
United States
More flights between these airports :: More routes between these airports
Route: +BOI NATZZ LEIDY DNW
File this flight plan on PilotEdge
Remarks:
Altitude:
(Current/Filed)
23,000ft
Speed:
(Current/Filed)
453kts
Departed: 06-Mar-18 09:49 AM
Arrived: 06-Mar-18 10:35 AM
Distance/Time
Traveled:
238nm/0:46
Distance/Time
To Go:
Arrived

Flight Plot

Page will automatically refresh every two minutes.

Flight plan parsing failed; only flown route is shown


Map Options




Map Legend


Flown Route
Filed Route
Departure Airport
Arrival Airport
Navaid (VOR, NDB)
Fix

Horizontal Profiles

Position Reports

Time Latitude Longitude Heading Altitude Ground
Speed
06-Mar-18 09:28 43.567804 -116.219517 225 2879ft 0kts
06-Mar-18 09:29 43.567408 -116.221130 29 2879ft 0kts
06-Mar-18 09:30 43.567408 -116.221130 29 2879ft 0kts
06-Mar-18 09:31 43.567408 -116.221130 29 2879ft 0kts
06-Mar-18 09:32 43.567408 -116.221130 29 2879ft 0kts
06-Mar-18 09:33 43.567408 -116.221130 29 2879ft 0kts
06-Mar-18 09:34 43.567408 -116.221130 29 2879ft 0kts
06-Mar-18 09:35 43.567408 -116.221130 29 2879ft 0kts
06-Mar-18 09:36 43.567408 -116.221130 29 2879ft 0kts
06-Mar-18 09:37 43.567408 -116.221130 29 2879ft 0kts
06-Mar-18 09:38 43.567408 -116.221130 29 2879ft 0kts
06-Mar-18 09:39 43.567408 -116.221130 29 2879ft 0kts
06-Mar-18 09:40 43.567408 -116.221130 29 2879ft 0kts
06-Mar-18 09:41 43.567408 -116.221130 29 2879ft 0kts
06-Mar-18 09:42 43.567408 -116.221130 29 2879ft 0kts
06-Mar-18 09:43 43.567408 -116.221130 29 2879ft 0kts
06-Mar-18 09:44 43.567408 -116.221130 29 2879ft 0kts
06-Mar-18 09:45 43.567408 -116.221130 29 2879ft 0kts
06-Mar-18 09:46 43.567408 -116.221130 29 2879ft 0kts
06-Mar-18 09:47 43.567408 -116.221130 29 2879ft 0kts
06-Mar-18 09:48 43.567052 -116.221341 356 2879ft 2kts
06-Mar-18 09:49 43.566768 -116.221093 300 2879ft 0kts
06-Mar-18 09:50 43.566770 -116.221097 300 2879ft 0kts
06-Mar-18 09:51 43.566773 -116.221105 300 2879ft 0kts
06-Mar-18 09:52 43.566790 -116.221511 230 2879ft 0kts
06-Mar-18 09:53 43.567134 -116.224165 295 2879ft 21kts
06-Mar-18 09:54 43.569742 -116.231894 294 2879ft 22kts
06-Mar-18 09:55 43.570822 -116.236030 221 2879ft 0kts
06-Mar-18 09:56 43.568821 -116.232853 115 2879ft 60kts
06-Mar-18 09:57 43.553061 -116.185303 114 4279ft 171kts
06-Mar-18 09:58 43.530306 -116.111447 112 6351ft 250kts
06-Mar-18 09:59 43.512133 -116.013043 84 9689ft 283kts
06-Mar-18 10:00 43.522245 -115.895461 82 11887ft 348kts
06-Mar-18 10:01 43.534769 -115.747245 81 13369ft 419kts
06-Mar-18 10:02 43.549009 -115.584340 81 15843ft 439kts
06-Mar-18 10:03 43.562686 -115.417091 81 16115ft 443kts
06-Mar-18 10:04 43.575453 -115.245149 84 18595ft 459kts
06-Mar-18 10:05 43.582255 -115.066120 85 20643ft 477kts
06-Mar-18 10:06 43.589260 -114.879858 84 22473ft 493kts
06-Mar-18 10:07 43.597046 -114.688727 84 23415ft 503kts
06-Mar-18 10:08 43.604523 -114.497415 85 23432ft 499kts
06-Mar-18 10:09 43.611520 -114.306120 85 23437ft 497kts
06-Mar-18 10:10 43.618104 -114.116219 85 23438ft 495kts
06-Mar-18 10:11 43.624355 -113.926437 85 23435ft 495kts
06-Mar-18 10:12 43.630305 -113.736069 85 23436ft 495kts
06-Mar-18 10:13 43.635923 -113.546116 85 23440ft 496kts
06-Mar-18 10:14 43.641251 -113.355244 85 23442ft 497kts
06-Mar-18 10:15 43.646253 -113.164658 85 23446ft 498kts
06-Mar-18 10:16 43.650791 -112.973795 86 23449ft 497kts
06-Mar-18 10:17 43.654894 -112.782747 86 23456ft 496kts
06-Mar-18 10:18 43.659207 -112.592730 85 23466ft 495kts
06-Mar-18 10:19 43.663269 -112.402654 86 23471ft 493kts
06-Mar-18 10:20 43.666795 -112.213851 86 23473ft 492kts
06-Mar-18 10:21 43.669732 -112.040014 86 23468ft 423kts
06-Mar-18 10:22 43.672247 -111.876436 86 23466ft 428kts
06-Mar-18 10:23 43.674841 -111.714203 86 22357ft 416kts
06-Mar-18 10:24 43.676654 -111.548627 87 21559ft 437kts
06-Mar-18 10:25 43.678057 -111.380815 87 21019ft 444kts
06-Mar-18 10:26 43.679211 -111.210439 87 20363ft 442kts
06-Mar-18 10:27 43.680798 -111.044431 86 19437ft 410kts
06-Mar-18 10:28 43.681823 -110.889556 86 19399ft 402kts
06-Mar-18 10:29 43.682531 -110.735092 86 19391ft 402kts
06-Mar-18 10:30 43.683336 -110.579011 87 19175ft 415kts
06-Mar-18 10:31 43.683415 -110.423582 87 17801ft 395kts
06-Mar-18 10:32 43.721185 -110.300393 21 16645ft 329kts
06-Mar-18 10:33 43.796273 -110.326419 335 15403ft 286kts
06-Mar-18 10:34 43.838434 -110.404918 273 13787ft 278kts
06-Mar-18 10:35 43.848628 -110.510475 279 12475ft 267kts
06-Mar-18 10:36 43.859577 -110.603750 251 12015ft 239kts
06-Mar-18 10:37 43.800668 -110.643553 200 11053ft 244kts
06-Mar-18 10:38 43.738785 -110.673540 200 9222ft 225kts
06-Mar-18 10:39 43.684867 -110.699878 200 7876ft 182kts
06-Mar-18 10:40 43.642333 -110.720720 199 7023ft 157kts
06-Mar-18 10:41 43.603192 -110.739729 200 6459ft 89kts
06-Mar-18 10:42 43.599959 -110.739616 23 6459ft 11kts
06-Mar-18 10:43 43.603327 -110.737959 20 6459ft 18kts
06-Mar-18 10:44 43.603873 -110.736373 107 6459ft 0kts

Navigation Log

Ident Type
Flight plan parsing failed, navigation log unavailable